createdAt,value
2019-05-09T00:00:04.530Z,992.40
2019-05-09T00:01:04.524Z,992.39
2019-05-09T00:02:04.519Z,992.46
2019-05-09T00:03:04.514Z,992.42
2019-05-09T00:04:04.504Z,992.49
2019-05-09T00:05:04.494Z,992.46
2019-05-09T00:06:04.752Z,992.50
2019-05-09T00:07:04.474Z,992.51
2019-05-09T00:08:04.467Z,992.50
2019-05-09T00:09:04.458Z,992.46
2019-05-09T00:10:04.455Z,992.53
2019-05-09T00:11:04.446Z,992.49
2019-05-09T00:12:04.437Z,992.55
2019-05-09T00:13:04.431Z,992.54
2019-05-09T00:14:04.754Z,992.52
2019-05-09T00:15:04.720Z,992.54
2019-05-09T00:16:04.406Z,992.53
2019-05-09T00:17:04.397Z,992.58
2019-05-09T00:18:04.393Z,992.55
2019-05-09T00:19:04.380Z,992.52
2019-05-09T00:20:04.371Z,992.55
2019-05-09T00:21:04.363Z,992.54
2019-05-09T00:22:04.360Z,992.59
2019-05-09T00:23:04.351Z,992.60
2019-05-09T00:24:04.344Z,992.63
2019-05-09T00:25:04.333Z,992.60
2019-05-09T00:26:04.378Z,992.58
2019-05-09T00:27:04.314Z,992.57
2019-05-09T00:28:04.315Z,992.55
2019-05-09T00:29:04.303Z,992.57
2019-05-09T00:30:04.289Z,992.57
2019-05-09T00:31:04.279Z,992.61
2019-05-09T00:32:04.275Z,992.57
2019-05-09T00:33:04.266Z,992.58
2019-05-09T00:34:04.406Z,992.58
2019-05-09T00:35:04.254Z,992.60
2019-05-09T00:36:04.494Z,992.56
2019-05-09T00:37:04.235Z,992.58
2019-05-09T00:38:04.479Z,992.56
2019-05-09T00:39:04.236Z,992.52
2019-05-09T00:40:04.210Z,992.54
2019-05-09T00:41:04.201Z,992.56
2019-05-09T00:42:04.554Z,992.53
2019-05-09T00:43:04.218Z,992.51
2019-05-09T00:44:04.175Z,992.51
2019-05-09T00:45:04.282Z,992.52
2019-05-09T00:46:04.499Z,992.52
2019-05-09T00:47:04.339Z,992.51
2019-05-09T00:48:04.145Z,992.51
2019-05-09T00:49:05.062Z,992.52
2019-05-09T00:50:05.159Z,992.50
2019-05-09T00:51:04.115Z,992.49
2019-05-09T00:52:04.106Z,992.54
2019-05-09T00:53:04.100Z,992.49
2019-05-09T00:54:04.305Z,992.49
2019-05-09T00:55:04.095Z,992.49
2019-05-09T00:56:04.476Z,992.47
2019-05-09T00:57:04.068Z,992.43
2019-05-09T00:58:04.305Z,992.48
2019-05-09T00:59:04.385Z,992.46
2019-05-09T01:00:04.141Z,992.49
2019-05-09T01:01:04.490Z,992.46
2019-05-09T01:02:04.170Z,992.44
2019-05-09T01:03:04.011Z,992.47
2019-05-09T01:04:04.460Z,992.48
2019-05-09T01:05:04.356Z,992.46
2019-05-09T01:06:04.424Z,992.52
2019-05-09T01:07:03.982Z,992.49
2019-05-09T01:08:04.279Z,992.45
2019-05-09T01:09:04.320Z,992.50
2019-05-09T01:10:04.383Z,992.49
2019-05-09T01:11:11.710Z,992.53
2019-05-09T01:12:04.264Z,992.49
2019-05-09T01:13:03.927Z,992.45
2019-05-09T01:14:03.931Z,992.42
2019-05-09T01:15:03.913Z,992.45
2019-05-09T01:16:04.676Z,992.49
2019-05-09T01:17:04.354Z,992.47
2019-05-09T01:18:04.585Z,992.43
2019-05-09T01:19:03.906Z,992.42
2019-05-09T01:20:03.881Z,992.41
2019-05-09T01:21:04.158Z,992.41
2019-05-09T01:22:03.987Z,992.38
2019-05-09T01:23:03.839Z,992.36
2019-05-09T01:24:03.835Z,992.39
2019-05-09T01:25:04.274Z,992.35
2019-05-09T01:26:04.126Z,992.35
2019-05-09T01:27:03.920Z,992.35
2019-05-09T01:28:03.804Z,992.38
2019-05-09T01:29:04.504Z,992.28
2019-05-09T01:30:04.567Z,992.32
2019-05-09T01:31:04.306Z,992.27
2019-05-09T01:32:03.765Z,992.28
2019-05-09T01:33:03.862Z,992.30
2019-05-09T01:34:04.194Z,992.32
2019-05-09T01:35:03.949Z,992.32
2019-05-09T01:36:03.950Z,992.29
2019-05-09T01:37:03.718Z,992.26
2019-05-09T01:38:03.804Z,992.28
2019-05-09T01:39:03.714Z,992.26
2019-05-09T01:40:04.277Z,992.26
2019-05-09T01:41:04.169Z,992.27
2019-05-09T01:42:03.675Z,992.24
2019-05-09T01:43:04.504Z,992.22
2019-05-09T01:44:04.158Z,992.24
2019-05-09T01:45:03.823Z,992.27
2019-05-09T01:46:03.962Z,992.24
2019-05-09T01:47:03.987Z,992.30
2019-05-09T01:48:03.628Z,992.22
2019-05-09T01:49:03.619Z,992.24
2019-05-09T01:50:03.986Z,992.23
2019-05-09T01:51:03.608Z,992.23
2019-05-09T01:52:03.749Z,992.27
2019-05-09T01:53:04.103Z,992.27
2019-05-09T01:54:03.837Z,992.26
2019-05-09T01:55:03.791Z,992.23
2019-05-09T01:56:03.888Z,992.25
2019-05-09T01:57:03.658Z,992.25
2019-05-09T01:58:03.538Z,992.24
2019-05-09T01:59:03.528Z,992.23
2019-05-09T02:00:04.190Z,992.23
2019-05-09T02:01:03.746Z,992.20
2019-05-09T02:02:08.102Z,992.19
2019-05-09T02:03:03.489Z,992.20
2019-05-09T02:04:04.064Z,992.18
2019-05-09T02:05:04.167Z,992.19
2019-05-09T02:06:03.775Z,992.15
2019-05-09T02:07:04.303Z,992.15
2019-05-09T02:08:03.462Z,992.15
2019-05-09T02:09:03.596Z,992.08
2019-05-09T02:10:03.570Z,992.09
2019-05-09T02:11:03.932Z,992.06
2019-05-09T02:12:04.004Z,992.11
2019-05-09T02:13:03.407Z,992.13
2019-05-09T02:14:04.133Z,992.13
2019-05-09T02:15:04.026Z,992.11
2019-05-09T02:16:03.487Z,992.11
2019-05-09T02:17:03.396Z,992.07
2019-05-09T02:18:05.250Z,992.13
2019-05-09T02:19:04.069Z,992.13
2019-05-09T02:20:03.976Z,992.12
2019-05-09T02:21:04.040Z,992.09
2019-05-09T02:22:03.712Z,992.10
2019-05-09T02:23:03.762Z,992.08
2019-05-09T02:24:03.421Z,992.09
2019-05-09T02:25:04.277Z,992.06
2019-05-09T02:26:03.954Z,992.03
2019-05-09T02:27:03.930Z,992.05
2019-05-09T02:28:03.540Z,992.12
2019-05-09T02:29:03.424Z,992.18
2019-05-09T02:30:05.882Z,992.20
2019-05-09T02:31:05.272Z,992.16
2019-05-09T02:32:04.636Z,992.20
2019-05-09T02:33:05.147Z,992.16
2019-05-09T02:34:04.894Z,992.17
2019-05-09T02:35:04.964Z,992.13
2019-05-09T02:36:03.247Z,992.11
2019-05-09T02:37:03.201Z,992.14
2019-05-09T02:38:03.190Z,992.09
2019-05-09T02:39:03.185Z,992.04
2019-05-09T02:40:03.189Z,992.09
2019-05-09T02:41:03.163Z,992.06
2019-05-09T02:42:09.533Z,992.08
2019-05-09T02:43:03.145Z,992.10
2019-05-09T02:44:03.143Z,992.02
2019-05-09T02:45:03.132Z,992.02
2019-05-09T02:46:03.119Z,992.02
2019-05-09T02:47:03.109Z,992.01
2019-05-09T02:48:03.109Z,992.03
2019-05-09T02:49:03.091Z,992.00
2019-05-09T02:50:03.088Z,992.02
2019-05-09T02:51:03.081Z,992.03
2019-05-09T02:52:03.068Z,992.02
2019-05-09T02:53:03.058Z,992.02
2019-05-09T02:54:03.052Z,992.03
2019-05-09T02:55:03.046Z,992.07
2019-05-09T02:56:03.043Z,992.03
2019-05-09T02:57:03.033Z,992.00
2019-05-09T02:58:03.015Z,991.96
2019-05-09T02:59:03.006Z,991.97
2019-05-09T03:00:02.999Z,991.95
2019-05-09T03:01:02.989Z,991.96
2019-05-09T03:02:02.997Z,991.96
2019-05-09T03:03:02.977Z,991.99
2019-05-09T03:04:02.971Z,991.95
2019-05-09T03:05:02.978Z,991.92
2019-05-09T03:06:02.946Z,991.91
2019-05-09T03:07:02.937Z,991.92
2019-05-09T03:08:02.937Z,991.88
2019-05-09T03:09:02.931Z,991.87
2019-05-09T03:10:02.915Z,991.85
2019-05-09T03:11:02.905Z,991.85
2019-05-09T03:12:21.110Z,991.90
2019-05-09T03:13:02.886Z,991.89
2019-05-09T03:14:02.886Z,991.88
2019-05-09T03:15:02.876Z,991.84
2019-05-09T03:16:02.867Z,991.86
2019-05-09T03:17:02.863Z,991.91
2019-05-09T03:18:02.851Z,991.87
2019-05-09T03:19:02.844Z,991.88
2019-05-09T03:20:02.829Z,991.86
2019-05-09T03:21:02.835Z,991.85
2019-05-09T03:22:02.821Z,991.86
2019-05-09T03:23:02.827Z,991.88
2019-05-09T03:24:02.798Z,991.86
2019-05-09T03:25:02.787Z,991.85
2019-05-09T03:26:02.784Z,991.85
2019-05-09T03:27:02.774Z,991.89
2019-05-09T03:28:02.765Z,991.83
2019-05-09T03:29:02.756Z,991.89
2019-05-09T03:30:02.758Z,991.90
2019-05-09T03:31:02.737Z,991.88
2019-05-09T03:32:02.729Z,991.87
2019-05-09T03:33:02.721Z,991.84
2019-05-09T03:34:02.718Z,991.83
2019-05-09T03:35:02.706Z,991.81
2019-05-09T03:36:02.701Z,991.81
2019-05-09T03:37:02.690Z,991.79
2019-05-09T03:38:02.680Z,991.80
2019-05-09T03:39:02.670Z,991.76
2019-05-09T03:40:02.665Z,991.73
2019-05-09T03:41:02.656Z,991.69
2019-05-09T03:42:02.649Z,991.67
2019-05-09T03:43:02.634Z,991.70
2019-05-09T03:44:02.632Z,991.65
2019-05-09T03:45:02.623Z,991.69
2019-05-09T03:46:02.615Z,991.69
2019-05-09T03:47:02.606Z,991.66
2019-05-09T03:48:02.596Z,991.68
2019-05-09T03:49:02.592Z,991.66
2019-05-09T03:50:02.578Z,991.71
2019-05-09T03:51:02.586Z,991.70
2019-05-09T03:52:02.559Z,991.69
2019-05-09T03:53:02.551Z,991.68
2019-05-09T03:54:02.544Z,991.67
2019-05-09T03:55:02.535Z,991.69
2019-05-09T03:56:02.526Z,991.69
2019-05-09T03:57:02.514Z,991.67
2019-05-09T03:58:02.510Z,991.68
2019-05-09T03:59:02.501Z,991.68
2019-05-09T04:00:02.492Z,991.69
2019-05-09T04:01:02.489Z,991.66
2019-05-09T04:02:02.471Z,991.64
2019-05-09T04:03:02.462Z,991.66
2019-05-09T04:04:02.459Z,991.63
2019-05-09T04:05:02.448Z,991.60
2019-05-09T04:06:03.135Z,991.61
2019-05-09T04:07:02.429Z,991.57
2019-05-09T04:08:02.420Z,991.62
2019-05-09T04:09:02.427Z,991.59
2019-05-09T04:10:02.405Z,991.65
2019-05-09T04:11:02.396Z,991.62
2019-05-09T04:12:02.384Z,991.60
2019-05-09T04:13:02.375Z,991.58
2019-05-09T04:14:02.369Z,991.62
2019-05-09T04:15:02.359Z,991.68
2019-05-09T04:16:02.354Z,991.70
2019-05-09T04:17:02.342Z,991.72
2019-05-09T04:18:02.331Z,991.72
2019-05-09T04:19:02.349Z,991.76
2019-05-09T04:20:02.309Z,991.79
2019-05-09T04:21:02.303Z,991.79
2019-05-09T04:22:02.553Z,991.77
2019-05-09T04:23:02.302Z,991.80
2019-05-09T04:24:02.283Z,991.77
2019-05-09T04:25:04.837Z,991.78
2019-05-09T04:26:08.521Z,991.77
2019-05-09T04:27:02.251Z,991.73
2019-05-09T04:28:02.247Z,991.74
2019-05-09T04:29:02.235Z,991.76
2019-05-09T04:30:02.226Z,991.75
2019-05-09T04:31:02.217Z,991.73
2019-05-09T04:32:02.208Z,991.70
2019-05-09T04:33:02.202Z,991.68
2019-05-09T04:34:02.201Z,991.68
2019-05-09T04:35:02.186Z,991.70
2019-05-09T04:36:02.178Z,991.66
2019-05-09T04:37:02.169Z,991.64
2019-05-09T04:38:02.157Z,991.64
2019-05-09T04:39:02.147Z,991.63
2019-05-09T04:40:03.512Z,991.66
2019-05-09T04:41:02.132Z,991.65
2019-05-09T04:42:05.336Z,991.66
2019-05-09T04:43:13.378Z,991.69
2019-05-09T04:44:05.148Z,991.75
2019-05-09T04:45:03.506Z,991.77
2019-05-09T04:46:02.093Z,991.72
2019-05-09T04:47:03.637Z,991.77
2019-05-09T04:48:02.074Z,991.77
2019-05-09T04:49:02.709Z,991.76
2019-05-09T04:50:02.062Z,991.79
2019-05-09T04:51:02.045Z,991.82
2019-05-09T04:52:02.043Z,991.80
2019-05-09T04:53:02.029Z,991.73
2019-05-09T04:54:02.027Z,991.72
2019-05-09T04:55:02.014Z,991.71
2019-05-09T04:56:02.002Z,991.75
2019-05-09T04:57:02.001Z,991.77
2019-05-09T04:58:01.986Z,991.79
2019-05-09T04:59:01.976Z,991.76
2019-05-09T05:00:01.982Z,991.81
2019-05-09T05:01:01.963Z,991.80
2019-05-09T05:02:01.955Z,991.80
2019-05-09T05:03:01.944Z,991.81
2019-05-09T05:04:01.939Z,991.77
2019-05-09T05:05:01.928Z,991.80
2019-05-09T05:06:01.924Z,991.78
2019-05-09T05:07:01.926Z,991.84
2019-05-09T05:08:01.908Z,991.79
2019-05-09T05:09:01.902Z,991.83
2019-05-09T05:10:01.891Z,991.81
2019-05-09T05:11:01.880Z,991.82
2019-05-09T05:12:01.878Z,991.88
2019-05-09T05:13:01.863Z,991.86
2019-05-09T05:14:01.867Z,991.82
2019-05-09T05:15:01.852Z,991.86
2019-05-09T05:16:01.846Z,991.86
2019-05-09T05:17:07.521Z,991.89
2019-05-09T05:18:01.829Z,991.90
2019-05-09T05:19:01.820Z,991.94
2019-05-09T05:20:01.813Z,991.93
2019-05-09T05:21:01.806Z,991.99
2019-05-09T05:22:01.795Z,991.97
2019-05-09T05:23:01.785Z,991.96
2019-05-09T05:24:01.778Z,991.98
2019-05-09T05:25:01.804Z,992.01
2019-05-09T05:26:01.769Z,991.98
2019-05-09T05:27:01.761Z,991.96
2019-05-09T05:28:01.760Z,991.94
2019-05-09T05:29:01.748Z,991.90
2019-05-09T05:30:01.738Z,991.91
2019-05-09T05:31:01.730Z,991.98
2019-05-09T05:32:01.733Z,991.96
2019-05-09T05:33:01.725Z,992.03
2019-05-09T05:34:01.716Z,992.06
2019-05-09T05:35:01.708Z,992.07
2019-05-09T05:36:01.701Z,992.01
2019-05-09T05:37:01.696Z,992.04
2019-05-09T05:38:01.698Z,992.15
2019-05-09T05:39:01.687Z,992.11
2019-05-09T05:40:01.682Z,992.16
2019-05-09T05:41:01.678Z,992.17
2019-05-09T05:42:01.673Z,992.14
2019-05-09T05:43:01.667Z,992.14
2019-05-09T05:44:01.660Z,992.11
2019-05-09T05:45:01.651Z,992.13
2019-05-09T05:46:01.651Z,992.11
2019-05-09T05:47:01.648Z,992.16
2019-05-09T05:48:01.639Z,992.16
2019-05-09T05:49:01.648Z,992.17
2019-05-09T05:50:01.639Z,992.17
2019-05-09T05:51:01.634Z,992.20
2019-05-09T05:52:01.632Z,992.14
2019-05-09T05:53:01.625Z,992.17
2019-05-09T05:54:01.669Z,992.05
2019-05-09T05:55:01.618Z,992.17
2019-05-09T05:56:01.614Z,992.18
2019-05-09T05:57:01.617Z,992.18
2019-05-09T05:58:01.630Z,992.15
2019-05-09T05:59:01.611Z,992.09
2019-05-09T06:00:01.615Z,992.12
2019-05-09T06:01:04.285Z,992.11
2019-05-09T06:02:01.613Z,992.06
2019-05-09T06:03:01.599Z,992.10
2019-05-09T06:04:01.606Z,992.13
2019-05-09T06:05:01.610Z,992.15
2019-05-09T06:06:01.602Z,992.07
2019-05-09T06:07:01.599Z,992.06
2019-05-09T06:08:01.600Z,992.09
2019-05-09T06:09:01.595Z,992.13
2019-05-09T06:10:01.601Z,992.09
2019-05-09T06:11:01.599Z,992.12
2019-05-09T06:12:01.601Z,992.16
2019-05-09T06:13:01.599Z,992.13
2019-05-09T06:14:08.801Z,992.11
2019-05-09T06:15:01.601Z,992.07
2019-05-09T06:16:01.595Z,991.98
2019-05-09T06:17:01.600Z,992.04
2019-05-09T06:18:01.602Z,991.97
2019-05-09T06:19:01.601Z,992.01
2019-05-09T06:20:01.604Z,992.01
2019-05-09T06:21:01.603Z,992.01
2019-05-09T06:22:01.610Z,991.99
2019-05-09T06:23:01.605Z,992.01
2019-05-09T06:24:01.606Z,991.93
2019-05-09T06:25:01.605Z,991.94
2019-05-09T06:26:01.650Z,991.93
2019-05-09T06:27:01.601Z,991.89
2019-05-09T06:28:01.613Z,991.88
2019-05-09T06:29:01.602Z,991.96
2019-05-09T06:30:01.607Z,991.97
2019-05-09T06:31:01.606Z,991.93
2019-05-09T06:32:01.606Z,991.91
2019-05-09T06:33:04.825Z,992.00
2019-05-09T06:34:01.608Z,991.94
2019-05-09T06:35:01.602Z,991.94
2019-05-09T06:36:01.613Z,991.96
2019-05-09T06:37:03.387Z,991.94
2019-05-09T06:38:01.608Z,991.95
2019-05-09T06:39:01.604Z,992.02
2019-05-09T06:40:01.609Z,992.01
2019-05-09T06:41:01.612Z,992.04
2019-05-09T06:42:01.606Z,992.02
2019-05-09T06:43:01.605Z,991.98
2019-05-09T06:44:13.170Z,991.99
2019-05-09T06:45:01.608Z,992.03
2019-05-09T06:46:01.600Z,992.14
2019-05-09T06:47:01.601Z,992.09
2019-05-09T06:48:01.596Z,992.15
2019-05-09T06:49:20.202Z,992.08
2019-05-09T06:50:01.601Z,992.06
2019-05-09T06:51:01.597Z,992.09
2019-05-09T06:52:01.595Z,992.11
2019-05-09T06:53:01.594Z,992.07
2019-05-09T06:54:01.615Z,992.01
2019-05-09T06:55:01.601Z,991.98
2019-05-09T06:56:01.595Z,991.96
2019-05-09T06:57:01.596Z,991.91
2019-05-09T06:58:01.598Z,992.01
2019-05-09T06:59:01.594Z,992.00
2019-05-09T07:00:01.596Z,991.95
2019-05-09T07:01:01.596Z,992.00
2019-05-09T07:02:01.598Z,991.93
2019-05-09T07:03:01.879Z,991.97
2019-05-09T07:04:01.603Z,991.97
2019-05-09T07:05:01.626Z,991.98
2019-05-09T07:06:01.601Z,991.96
2019-05-09T07:07:01.604Z,991.93
2019-05-09T07:08:01.610Z,992.04
2019-05-09T07:09:01.607Z,991.93
2019-05-09T07:10:01.607Z,991.99
2019-05-09T07:11:01.608Z,991.98
2019-05-09T07:12:01.612Z,992.02
2019-05-09T07:13:01.607Z,992.07
2019-05-09T07:14:01.613Z,992.04
2019-05-09T07:15:01.620Z,992.00
2019-05-09T07:16:01.614Z,991.99
2019-05-09T07:17:01.619Z,991.94
2019-05-09T07:18:01.619Z,991.91
2019-05-09T07:19:01.614Z,991.94
2019-05-09T07:20:01.637Z,991.90
2019-05-09T07:21:01.616Z,991.99
2019-05-09T07:22:01.624Z,991.99
2019-05-09T07:23:01.621Z,991.94
2019-05-09T07:24:01.620Z,991.89
2019-05-09T07:25:06.734Z,991.90
2019-05-09T07:26:01.628Z,991.89
2019-05-09T07:27:01.621Z,991.90
2019-05-09T07:28:01.629Z,991.88
2019-05-09T07:29:01.627Z,991.89
2019-05-09T07:30:01.622Z,991.89
2019-05-09T07:31:01.618Z,991.88
2019-05-09T07:32:01.619Z,991.92
2019-05-09T07:33:01.620Z,991.93
2019-05-09T07:34:01.624Z,991.95
2019-05-09T07:35:01.629Z,991.94
2019-05-09T07:36:01.625Z,991.92
2019-05-09T07:37:01.628Z,991.92
2019-05-09T07:38:01.620Z,991.96
2019-05-09T07:39:01.650Z,991.91
2019-05-09T07:40:01.628Z,991.90
2019-05-09T07:41:01.624Z,991.89
2019-05-09T07:42:01.617Z,991.97
2019-05-09T07:43:01.620Z,991.85
2019-05-09T07:44:01.614Z,991.90
2019-05-09T07:45:01.669Z,991.85
2019-05-09T07:46:01.619Z,991.83
2019-05-09T07:47:01.616Z,991.79
2019-05-09T07:48:01.617Z,991.84
2019-05-09T07:49:01.666Z,991.78
2019-05-09T07:50:01.615Z,991.78
2019-05-09T07:51:01.609Z,991.83
2019-05-09T07:52:06.680Z,991.81
2019-05-09T07:53:01.606Z,991.71
2019-05-09T07:54:16.334Z,991.73
2019-05-09T07:55:01.614Z,991.72
2019-05-09T07:56:01.606Z,991.72
2019-05-09T07:57:01.602Z,991.67
2019-05-09T07:58:01.622Z,991.64
2019-05-09T07:59:01.613Z,991.60
2019-05-09T08:00:01.606Z,991.64
2019-05-09T08:01:01.738Z,991.56
2019-05-09T08:02:01.595Z,991.56
2019-05-09T08:03:01.597Z,991.50
2019-05-09T08:04:01.593Z,991.54
2019-05-09T08:05:01.589Z,991.50
2019-05-09T08:06:01.591Z,991.56
2019-05-09T08:07:01.592Z,991.53
2019-05-09T08:08:01.588Z,991.56
2019-05-09T08:09:01.591Z,991.56
2019-05-09T08:10:01.584Z,991.53
2019-05-09T08:11:01.577Z,991.57
2019-05-09T08:12:01.579Z,991.60
2019-05-09T08:13:01.577Z,991.56
2019-05-09T08:14:01.572Z,991.55
2019-05-09T08:15:16.444Z,991.55
2019-05-09T08:16:01.567Z,991.61
2019-05-09T08:17:01.564Z,991.51
2019-05-09T08:18:01.587Z,991.51
2019-05-09T08:19:01.571Z,991.47
2019-05-09T08:20:01.564Z,991.45
2019-05-09T08:21:01.559Z,991.51
2019-05-09T08:22:01.555Z,991.46
2019-05-09T08:23:02.271Z,991.44
2019-05-09T08:24:01.547Z,991.44
2019-05-09T08:25:01.550Z,991.41
2019-05-09T08:26:04.443Z,991.42
2019-05-09T08:27:01.546Z,991.42
2019-05-09T08:28:01.541Z,991.43
2019-05-09T08:29:01.543Z,991.42
2019-05-09T08:30:01.540Z,991.44
2019-05-09T08:31:01.534Z,991.48
2019-05-09T08:32:01.537Z,991.46
2019-05-09T08:33:01.560Z,991.46
2019-05-09T08:34:01.520Z,991.44
2019-05-09T08:35:01.516Z,991.42
2019-05-09T08:36:01.518Z,991.47
2019-05-09T08:37:02.447Z,991.44
2019-05-09T08:38:01.512Z,991.44
2019-05-09T08:39:01.514Z,991.40
2019-05-09T08:40:01.516Z,991.40
2019-05-09T08:41:01.505Z,991.43
2019-05-09T08:42:01.516Z,991.34
2019-05-09T08:43:01.506Z,991.40
2019-05-09T08:44:01.494Z,991.39
2019-05-09T08:45:01.493Z,991.38
2019-05-09T08:46:01.499Z,991.39
2019-05-09T08:47:01.482Z,991.35
2019-05-09T08:48:01.479Z,991.40
2019-05-09T08:49:01.477Z,991.40
2019-05-09T08:50:01.478Z,991.44
2019-05-09T08:51:01.480Z,991.39
2019-05-09T08:52:15.493Z,991.42
2019-05-09T08:53:01.463Z,991.43
2019-05-09T08:54:01.459Z,991.44
2019-05-09T08:55:01.477Z,991.44
2019-05-09T08:56:01.453Z,991.51
2019-05-09T08:57:01.449Z,991.50
2019-05-09T08:58:01.457Z,991.47
2019-05-09T08:59:02.313Z,991.52
2019-05-09T09:00:01.440Z,991.46
2019-05-09T09:01:04.277Z,991.51
2019-05-09T09:02:14.897Z,991.50
2019-05-09T09:03:01.441Z,991.47
2019-05-09T09:04:01.436Z,991.49
2019-05-09T09:05:01.431Z,991.41
2019-05-09T09:06:01.422Z,991.47
2019-05-09T09:07:01.421Z,991.47
2019-05-09T09:08:01.418Z,991.44
2019-05-09T09:09:01.421Z,991.40
2019-05-09T09:10:01.415Z,991.44
2019-05-09T09:11:01.412Z,991.45
2019-05-09T09:12:01.410Z,991.43
2019-05-09T09:13:01.416Z,991.37
2019-05-09T09:14:01.403Z,991.47
2019-05-09T09:15:01.433Z,991.47
2019-05-09T09:16:14.468Z,991.48
2019-05-09T09:17:01.395Z,991.44
2019-05-09T09:18:01.389Z,991.41
2019-05-09T09:19:01.390Z,991.42
2019-05-09T09:20:01.389Z,991.44
2019-05-09T09:21:01.386Z,991.42
2019-05-09T09:22:01.382Z,991.43
2019-05-09T09:23:01.385Z,991.41
2019-05-09T09:24:01.377Z,991.41
2019-05-09T09:25:01.372Z,991.39
2019-05-09T09:26:01.380Z,991.45
2019-05-09T09:27:01.382Z,991.45
2019-05-09T09:28:01.357Z,991.42
2019-05-09T09:29:01.356Z,991.40
2019-05-09T09:30:16.492Z,991.38
2019-05-09T09:31:01.354Z,991.44
2019-05-09T09:32:01.346Z,991.41
2019-05-09T09:33:01.351Z,991.37
2019-05-09T09:34:01.345Z,991.43
2019-05-09T09:35:01.342Z,991.41
2019-05-09T09:36:01.338Z,991.46
2019-05-09T09:37:04.884Z,991.41
2019-05-09T09:38:01.367Z,991.37
2019-05-09T09:39:03.130Z,991.39
2019-05-09T09:40:01.326Z,991.41
2019-05-09T09:41:01.325Z,991.36
2019-05-09T09:42:01.323Z,991.39
2019-05-09T09:43:01.319Z,991.43
2019-05-09T09:44:01.317Z,991.43
2019-05-09T09:45:01.322Z,991.39
2019-05-09T09:46:10.520Z,991.37
2019-05-09T09:47:01.300Z,991.35
2019-05-09T09:48:01.374Z,991.39
2019-05-09T09:49:01.302Z,991.30
2019-05-09T09:50:01.295Z,991.34
2019-05-09T09:51:01.288Z,991.35
2019-05-09T09:52:01.286Z,991.38
2019-05-09T09:53:01.294Z,991.35
2019-05-09T09:54:01.285Z,991.35
2019-05-09T09:55:01.285Z,991.41
2019-05-09T09:56:01.277Z,991.37
2019-05-09T09:57:01.274Z,991.36
2019-05-09T09:58:01.268Z,991.40
2019-05-09T09:59:01.263Z,991.30
2019-05-09T10:00:01.267Z,991.33
2019-05-09T10:01:03.650Z,991.34
2019-05-09T10:02:01.262Z,991.36
2019-05-09T10:03:01.255Z,991.32
2019-05-09T10:04:15.636Z,991.36
2019-05-09T10:05:01.248Z,991.33
2019-05-09T10:06:01.246Z,991.33
2019-05-09T10:07:01.246Z,991.37
2019-05-09T10:08:01.241Z,991.34
2019-05-09T10:09:01.234Z,991.33
2019-05-09T10:10:01.230Z,991.31
2019-05-09T10:11:01.228Z,991.33
2019-05-09T10:12:01.227Z,991.34
2019-05-09T10:13:03.889Z,991.36
2019-05-09T10:14:01.226Z,991.34
2019-05-09T10:15:01.226Z,991.40
2019-05-09T10:16:01.224Z,991.36
2019-05-09T10:17:01.218Z,991.36
2019-05-09T10:18:01.212Z,991.36
2019-05-09T10:19:01.210Z,991.43
2019-05-09T10:20:01.212Z,991.35
2019-05-09T10:21:01.209Z,991.32
2019-05-09T10:22:01.209Z,991.32
2019-05-09T10:23:10.999Z,991.32
2019-05-09T10:24:01.207Z,991.32
2019-05-09T10:25:01.202Z,991.32
2019-05-09T10:26:01.199Z,991.28
2019-05-09T10:27:01.202Z,991.31
2019-05-09T10:28:01.196Z,991.31
2019-05-09T10:29:01.222Z,991.28
2019-05-09T10:30:01.188Z,991.31
2019-05-09T10:31:01.189Z,991.22
2019-05-09T10:32:01.184Z,991.29
2019-05-09T10:33:01.198Z,991.32
2019-05-09T10:34:01.185Z,991.28
2019-05-09T10:35:01.216Z,991.28
2019-05-09T10:36:04.528Z,991.28
2019-05-09T10:37:02.014Z,991.29
2019-05-09T10:38:01.184Z,991.24
2019-05-09T10:39:01.181Z,991.25
2019-05-09T10:40:01.180Z,991.29
2019-05-09T10:41:02.017Z,991.18
2019-05-09T10:42:01.177Z,991.24
2019-05-09T10:43:01.172Z,991.23
2019-05-09T10:44:02.019Z,991.27
2019-05-09T10:45:01.192Z,991.27
2019-05-09T10:46:01.183Z,991.24
2019-05-09T10:47:02.336Z,991.24
2019-05-09T10:48:01.178Z,991.26
2019-05-09T10:49:01.174Z,991.23
2019-05-09T10:50:01.171Z,991.21
2019-05-09T10:51:03.925Z,991.24
2019-05-09T10:52:01.172Z,991.21
2019-05-09T10:53:01.172Z,991.23
2019-05-09T10:54:01.174Z,991.27
2019-05-09T10:55:01.172Z,991.26
2019-05-09T10:56:01.176Z,991.27
2019-05-09T10:57:01.175Z,991.25
2019-05-09T10:58:02.364Z,991.21
2019-05-09T10:59:01.177Z,991.19
2019-05-09T11:00:01.171Z,991.21
2019-05-09T11:01:01.203Z,991.26
2019-05-09T11:02:01.167Z,991.22
2019-05-09T11:03:01.166Z,991.21
2019-05-09T11:04:01.169Z,991.24
2019-05-09T11:05:01.169Z,991.20
2019-05-09T11:06:01.175Z,991.23
2019-05-09T11:07:01.171Z,991.19
2019-05-09T11:08:01.169Z,991.19
2019-05-09T11:09:01.171Z,991.24
2019-05-09T11:10:01.178Z,991.17
2019-05-09T11:11:01.175Z,991.13
2019-05-09T11:12:01.450Z,991.11
2019-05-09T11:13:01.175Z,991.27
2019-05-09T11:14:01.173Z,991.21
2019-05-09T11:15:01.169Z,991.20
2019-05-09T11:16:01.179Z,991.21
2019-05-09T11:17:10.964Z,991.23
2019-05-09T11:18:01.174Z,991.29
2019-05-09T11:19:01.195Z,991.28
2019-05-09T11:20:01.218Z,991.22
2019-05-09T11:21:01.172Z,991.22
2019-05-09T11:22:01.170Z,991.27
2019-05-09T11:23:01.178Z,991.35
2019-05-09T11:24:01.173Z,991.32
2019-05-09T11:25:01.172Z,991.31
2019-05-09T11:26:01.171Z,991.29
2019-05-09T11:27:01.168Z,991.28
2019-05-09T11:28:10.410Z,991.33
2019-05-09T11:29:01.166Z,991.37
2019-05-09T11:30:01.183Z,991.36
2019-05-09T11:31:01.170Z,991.43
2019-05-09T11:32:01.168Z,991.35
2019-05-09T11:33:01.173Z,991.41
2019-05-09T11:34:01.165Z,991.36
2019-05-09T11:35:01.166Z,991.35
2019-05-09T11:36:01.174Z,991.34
2019-05-09T11:37:01.166Z,991.41
2019-05-09T11:38:01.169Z,991.38
2019-05-09T11:39:01.167Z,991.37
2019-05-09T11:40:01.163Z,991.41
2019-05-09T11:41:01.169Z,991.41
2019-05-09T11:42:01.166Z,991.41
2019-05-09T11:43:01.175Z,991.43
2019-05-09T11:44:01.209Z,991.39
2019-05-09T11:45:01.168Z,991.43
2019-05-09T11:46:01.163Z,991.43
2019-05-09T11:47:01.162Z,991.41
2019-05-09T11:48:01.163Z,991.43
2019-05-09T11:49:01.161Z,991.42
2019-05-09T11:50:01.180Z,991.46
2019-05-09T11:51:01.164Z,991.44
2019-05-09T11:52:01.171Z,991.51
2019-05-09T11:53:01.181Z,991.51
2019-05-09T11:54:01.163Z,991.44
2019-05-09T11:55:01.162Z,991.52
2019-05-09T11:56:01.167Z,991.50
2019-05-09T11:57:01.167Z,991.54
2019-05-09T11:58:01.172Z,991.51
2019-05-09T11:59:01.163Z,991.56
2019-05-09T12:00:01.173Z,991.52
2019-05-09T12:01:02.708Z,991.51
2019-05-09T12:02:01.172Z,991.55
2019-05-09T12:03:01.170Z,991.53
2019-05-09T12:04:01.169Z,991.52
2019-05-09T12:05:01.191Z,991.54
2019-05-09T12:06:01.166Z,991.55
2019-05-09T12:07:01.172Z,991.62
2019-05-09T12:08:01.167Z,991.62
2019-05-09T12:09:01.176Z,991.69
2019-05-09T12:10:01.199Z,991.61
2019-05-09T12:11:01.200Z,991.63
2019-05-09T12:12:01.172Z,991.62
2019-05-09T12:13:01.170Z,991.65
2019-05-09T12:14:01.174Z,991.66
2019-05-09T12:15:01.177Z,991.69
2019-05-09T12:16:01.176Z,991.69
2019-05-09T12:17:01.177Z,991.65
2019-05-09T12:18:07.547Z,991.68
2019-05-09T12:19:01.175Z,991.71
2019-05-09T12:20:09.763Z,991.76
2019-05-09T12:21:01.175Z,991.75
2019-05-09T12:22:01.204Z,991.72
2019-05-09T12:23:01.182Z,991.73
2019-05-09T12:24:01.183Z,991.74
2019-05-09T12:25:01.192Z,991.73
2019-05-09T12:26:01.196Z,991.75
2019-05-09T12:27:03.012Z,991.77
2019-05-09T12:28:01.184Z,991.76